Time;durP1;ratioP1;P1;durP2;ratioP2;P2;SDS_P1;SDS_P2;PMS_P1;PMS_P2;Temp;Humidity;BMP_temperature;BMP_pressure;BME280_temperature;BME280_humidity;BME280_pressure;Samples;Min_cycle;Max_cycle;Signal;HPM_P1;HPM_P2
2023/01/29 00:00:36;;;;;;;13.10;5.40;;;2.60;1.00;;;;;;4991359;28;20282;-76
2023/01/29 00:03:02;;;;;;;10.30;5.93;;;2.60;1.00;;;;;;4990673;28;20182;-75
2023/01/29 00:05:28;;;;;;;7.87;5.40;;;2.60;1.00;;;;;;4990583;28;20183;-76
2023/01/29 00:07:54;;;;;;;7.13;5.37;;;2.60;1.00;;;;;;4990433;28;20207;-76
2023/01/29 00:10:20;;;;;;;8.47;5.77;;;2.70;1.00;;;;;;4990017;28;20191;-76
2023/01/29 00:12:45;;;;;;;6.80;5.40;;;2.70;1.00;;;;;;4991625;28;20967;-76
2023/01/29 00:15:11;;;;;;;7.40;5.50;;;2.50;1.00;;;;;;4990189;28;20643;-76
2023/01/29 00:17:36;;;;;;;7.60;5.43;;;2.50;1.00;;;;;;4990726;28;20211;-75
2023/01/29 00:20:02;;;;;;;6.30;5.37;;;2.60;1.00;;;;;;4990885;28;20274;-75
2023/01/29 00:22:29;;;;;;;7.70;5.47;;;2.50;1.00;;;;;;4991369;28;20179;-75
2023/01/29 00:24:54;;;;;;;6.87;5.30;;;2.90;1.00;;;;;;4985969;28;20210;-76
2023/01/29 00:27:20;;;;;;;6.70;5.70;;;2.70;1.00;;;;;;4990373;28;20878;-76
2023/01/29 00:30:07;;;;;;;16.83;6.07;;;2.40;1.00;;;;;;4989101;28;20193;-75
2023/01/29 00:32:31;;;;;;;7.17;5.47;;;2.40;1.00;;;;;;4987284;28;20245;-76
2023/01/29 00:34:57;;;;;;;7.80;5.47;;;2.90;1.00;;;;;;4990798;28;20434;-76
2023/01/29 00:37:22;;;;;;;7.27;5.90;;;2.40;1.00;;;;;;4986420;28;20265;-76
2023/01/29 00:39:48;;;;;;;8.00;5.80;;;2.40;1.00;;;;;;4991809;28;20198;-76
2023/01/29 00:44:57;;;;;;;7.70;6.00;;;2.50;1.00;;;;;;4990306;28;20209;-76
2023/01/29 00:47:32;;;;;;;6.57;5.10;;;2.50;1.00;;;;;;4989670;28;20997;-76
2023/01/29 00:49:59;;;;;;;7.60;5.77;;;2.50;1.00;;;;;;4989597;28;20233;-76
2023/01/29 00:52:25;;;;;;;8.10;5.50;;;2.50;1.00;;;;;;4983792;28;20525;-76
2023/01/29 00:55:00;;;;;;;8.50;6.27;;;2.40;1.00;;;;;;4990201;28;20438;-76
2023/01/29 00:57:27;;;;;;;6.73;5.50;;;2.50;1.00;;;;;;4984040;28;20568;-76
2023/01/29 00:59:53;;;;;;;10.03;5.93;;;2.40;1.00;;;;;;4990295;28;20445;-76
2023/01/29 01:05:09;;;;;;;6.10;5.00;;;2.40;1.00;;;;;;4990548;28;20206;-75
2023/01/29 01:07:34;;;;;;;7.37;5.13;;;2.40;1.00;;;;;;4989104;28;20466;-76
2023/01/29 01:12:44;;;;;;;6.93;5.00;;;2.90;1.00;;;;;;4991705;28;20275;-76
2023/01/29 01:15:10;;;;;;;6.50;5.10;;;2.40;1.00;;;;;;4986804;28;20521;-76
2023/01/29 01:17:35;;;;;;;8.13;5.37;;;2.50;1.00;;;;;;4989801;28;20207;-76
2023/01/29 01:20:02;;;;;;;7.43;5.37;;;2.40;1.00;;;;;;4988755;28;20461;-74
2023/01/29 01:22:32;;;;;;;8.80;5.70;;;2.40;1.00;;;;;;4989241;28;20183;-76
2023/01/29 01:24:58;;;;;;;5.90;5.00;;;1.70;1.00;;;;;;4987048;28;20495;-76
2023/01/29 01:27:24;;;;;;;8.63;5.70;;;2.40;1.00;;;;;;4988845;28;20478;-76
2023/01/29 01:29:50;;;;;;;10.43;5.37;;;2.40;1.00;;;;;;4989046;28;20657;-76
2023/01/29 01:32:15;;;;;;;8.00;5.50;;;2.40;1.00;;;;;;4993994;28;20429;-76
2023/01/29 01:34:41;;;;;;;6.90;5.33;;;2.80;1.00;;;;;;4989817;28;20183;-76
2023/01/29 01:37:06;;;;;;;7.70;5.03;;;2.40;1.00;;;;;;4988639;28;20211;-76
2023/01/29 01:39:32;;;;;;;7.47;5.20;;;2.40;1.00;;;;;;4988567;28;20596;-76
2023/01/29 01:41:57;;;;;;;7.10;5.17;;;2.70;1.00;;;;;;4989468;28;20258;-77
2023/01/29 01:44:58;;;;;;;7.13;5.20;;;2.50;1.00;;;;;;4988324;28;20587;-77
2023/01/29 01:47:45;;;;;;;7.23;5.20;;;2.50;1.00;;;;;;4987263;28;20207;-76
2023/01/29 01:50:21;;;;;;;7.20;5.63;;;2.50;1.00;;;;;;4989011;28;20445;-76
2023/01/29 01:52:51;;;;;;;8.93;5.70;;;2.80;1.00;;;;;;4987914;28;20445;-76
2023/01/29 01:55:21;;;;;;;8.03;5.60;;;2.40;1.00;;;;;;4988728;28;20438;-74
2023/01/29 01:57:54;;;;;;;8.13;5.57;;;2.40;1.00;;;;;;4987834;28;20824;-77
2023/01/29 02:00:23;;;;;;;7.20;5.67;;;2.70;1.00;;;;;;4988596;28;20492;-76
2023/01/29 02:11:16;;;;;;;9.83;5.90;;;2.50;1.00;;;;;;4989876;28;20518;-76
2023/01/29 02:13:41;;;;;;;8.73;5.23;;;2.90;1.00;;;;;;4989050;28;20450;-76
2023/01/29 02:16:07;;;;;;;7.77;5.63;;;2.50;1.00;;;;;;4990009;28;20794;-76
2023/01/29 02:18:36;;;;;;;8.37;5.73;;;2.40;1.00;;;;;;4987565;28;20462;-76
2023/01/29 02:21:35;;;;;;;6.67;5.60;;;2.90;1.00;;;;;;4990021;28;20281;-76
2023/01/29 02:24:10;;;;;;;7.17;5.00;;;2.40;1.00;;;;;;4983668;28;20495;-76
2023/01/29 02:27:05;;;;;;;7.40;5.20;;;2.40;1.00;;;;;;4985197;28;20435;-76
2023/01/29 02:30:06;;;;;;;6.30;5.00;;;2.40;1.00;;;;;;4992971;28;20984;-76
2023/01/29 02:32:41;;;;;;;7.70;5.37;;;2.50;1.00;;;;;;4975921;28;20458;-76
2023/01/29 02:35:25;;;;;;;6.63;5.13;;;2.50;1.00;;;;;;4988668;28;20865;-75
2023/01/29 02:38:11;;;;;;;5.87;4.90;;;2.50;1.00;;;;;;4987565;28;20496;-76
2023/01/29 02:40:52;;;;;;;7.63;5.57;;;2.40;1.00;;;;;;4979861;28;20498;-76
2023/01/29 02:43:39;;;;;;;7.70;5.30;;;2.40;1.00;;;;;;4987308;28;20808;-76
2023/01/29 02:46:05;;;;;;;6.47;5.10;;;2.30;1.00;;;;;;4987511;28;20441;-75
2023/01/29 02:48:43;;;;;;;7.67;4.90;;;2.40;1.00;;;;;;4981835;28;20449;-76
2023/01/29 02:51:41;;;;;;;7.63;5.60;;;2.30;1.00;;;;;;4970985;28;20189;-74
2023/01/29 02:54:31;;;;;;;6.70;5.37;;;2.30;1.00;;;;;;4959412;28;20450;-74
2023/01/29 02:57:06;;;;;;;7.47;5.57;;;2.20;1.00;;;;;;4988322;28;20952;-76
2023/01/29 02:59:47;;;;;;;7.13;5.10;;;2.10;1.00;;;;;;4996421;28;20465;-74
2023/01/29 03:02:19;;;;;;;8.17;6.13;;;2.10;1.00;;;;;;4986785;28;20505;-76
2023/01/29 03:04:52;;;;;;;6.80;5.33;;;2.10;1.00;;;;;;4986343;28;20438;-76
2023/01/29 03:07:43;;;;;;;6.33;5.13;;;2.10;1.00;;;;;;4982640;28;20486;-74
2023/01/29 03:10:19;;;;;;;6.73;5.50;;;2.30;1.00;;;;;;4984942;28;20513;-75
2023/01/29 03:12:51;;;;;;;6.63;5.30;;;1.90;1.00;;;;;;4987391;28;20436;-76
2023/01/29 03:15:24;;;;;;;7.97;5.00;;;2.40;1.00;;;;;;4985771;28;20436;-75
2023/01/29 03:18:08;;;;;;;5.83;5.13;;;1.90;1.00;;;;;;4987139;28;21007;-75
2023/01/29 03:20:40;;;;;;;7.50;5.13;;;1.80;1.00;;;;;;4985490;28;20943;-75
2023/01/29 03:23:12;;;;;;;7.40;5.50;;;1.80;1.00;;;;;;4989516;28;20445;-75
2023/01/29 03:34:22;;;;;;;6.10;4.70;;;1.60;1.00;;;;;;4990582;28;20473;-74
2023/01/29 03:36:58;;;;;;;6.63;5.37;;;1.70;1.00;;;;;;4988506;28;20926;-73
2023/01/29 03:39:27;;;;;;;7.57;5.77;;;1.70;1.00;;;;;;4990345;28;20538;-74
2023/01/29 03:41:57;;;;;;;6.30;5.07;;;1.70;1.00;;;;;;4992999;28;20468;-74
2023/01/29 03:44:51;;;;;;;8.57;5.10;;;2.10;1.00;;;;;;4999571;28;20438;-73
2023/01/29 03:47:19;;;;;;;7.80;4.83;;;1.60;1.00;;;;;;4989663;28;20553;-73
2023/01/29 03:49:58;;;;;;;7.80;5.37;;;1.50;1.00;;;;;;4989909;28;20513;-74
2023/01/29 03:52:53;;;;;;;7.67;5.10;;;1.50;1.00;;;;;;4992903;28;20426;-73
2023/01/29 03:55:26;;;;;;;8.00;5.60;;;2.00;1.00;;;;;;4977624;28;20445;-72
2023/01/29 03:58:05;;;;;;;6.23;4.70;;;1.50;1.00;;;;;;4990385;28;20458;-73
2023/01/29 04:00:39;;;;;;;7.60;4.90;;;1.50;1.00;;;;;;4992830;28;20464;-73
2023/01/29 04:03:08;;;;;;;7.30;5.07;;;1.40;1.00;;;;;;4991344;28;20805;-76
2023/01/29 04:05:43;;;;;;;7.53;4.70;;;1.80;1.00;;;;;;4989563;28;20438;-76
2023/01/29 04:08:14;;;;;;;5.70;4.50;;;1.50;1.00;;;;;;4989747;28;20456;-76
2023/01/29 04:10:41;;;;;;;7.87;5.87;;;1.40;1.00;;;;;;4986411;28;20438;-74
2023/01/29 04:13:11;;;;;;;8.20;4.87;;;1.50;1.00;;;;;;4988820;28;20445;-76
2023/01/29 04:15:46;;;;;;;13.13;4.80;;;1.50;1.00;;;;;;4983582;28;20496;-77
2023/01/29 04:18:12;;;;;;;7.10;5.00;;;1.50;1.00;;;;;;4989274;28;20477;-74
2023/01/29 04:20:37;;;;;;;6.23;5.20;;;1.50;1.00;;;;;;4990906;28;20877;-76
2023/01/29 04:23:06;;;;;;;7.27;5.37;;;1.70;1.00;;;;;;4986735;28;20271;-77
2023/01/29 04:25:42;;;;;;;6.23;5.30;;;1.80;1.00;;;;;;4991930;28;20186;-76
2023/01/29 04:28:24;;;;;;;8.83;5.33;;;1.50;1.00;;;;;;4991603;28;20972;-76
2023/01/29 04:30:59;;;;;;;6.23;4.77;;;1.40;1.00;;;;;;4991008;28;21056;-77
2023/01/29 04:33:37;;;;;;;7.00;4.90;;;1.80;1.00;;;;;;4990391;28;20955;-76
2023/01/29 04:36:18;;;;;;;6.70;4.80;;;1.40;1.00;;;;;;4989562;28;20536;-76
2023/01/29 04:38:58;;;;;;;6.20;4.67;;;1.40;1.00;;;;;;4984288;28;20792;-76
2023/01/29 04:41:41;;;;;;;5.37;4.30;;;1.50;1.00;;;;;;4990456;28;20465;-76
2023/01/29 04:44:42;;;;;;;6.83;4.60;;;1.60;1.00;;;;;;4992012;28;20434;-76
2023/01/29 04:47:24;;;;;;;5.00;4.37;;;1.60;1.00;;;;;;4985479;28;20469;-77
2023/01/29 04:50:32;;;;;;;6.17;5.07;;;1.60;1.00;;;;;;4989589;28;20440;-77
2023/01/29 04:53:30;;;;;;;5.97;4.90;;;1.60;1.00;;;;;;4917629;29;20429;-77
2023/01/29 04:56:12;;;;;;;5.53;4.43;;;1.20;1.00;;;;;;4985051;28;20542;-77
2023/01/29 04:58:42;;;;;;;7.07;4.90;;;1.50;1.00;;;;;;4995441;28;20469;-77
2023/01/29 05:01:13;;;;;;;7.23;5.80;;;1.50;1.00;;;;;;4990224;28;20473;-77
2023/01/29 05:03:41;;;;;;;7.43;5.67;;;1.50;1.00;;;;;;4993183;28;20454;-77
2023/01/29 05:06:09;;;;;;;10.17;6.20;;;1.50;1.00;;;;;;4985412;28;20490;-77
2023/01/29 05:08:37;;;;;;;9.93;6.10;;;1.90;1.00;;;;;;4990925;28;20789;-76
2023/01/29 05:11:03;;;;;;;6.97;5.00;;;1.40;1.00;;;;;;4985689;28;20443;-77
2023/01/29 05:13:31;;;;;;;6.63;5.23;;;1.30;1.00;;;;;;4988553;28;20438;-76
2023/01/29 05:16:03;;;;;;;8.30;5.70;;;1.70;1.00;;;;;;4988270;28;20461;-76
2023/01/29 05:18:29;;;;;;;11.10;6.00;;;1.20;1.00;;;;;;4988431;28;20466;-77
2023/01/29 05:20:57;;;;;;;7.00;5.37;;;1.10;1.00;;;;;;4990888;28;20466;-76
2023/01/29 05:23:23;;;;;;;7.50;5.57;;;1.00;1.00;;;;;;4987244;28;20485;-77
2023/01/29 05:25:50;;;;;;;7.47;5.93;;;1.00;1.00;;;;;;4991153;28;20426;-77
2023/01/29 05:28:17;;;;;;;8.63;6.27;;;1.00;1.00;;;;;;4989636;28;20286;-75
2023/01/29 05:30:45;;;;;;;7.23;5.70;;;1.00;1.00;;;;;;4990687;28;20434;-76
2023/01/29 05:33:19;;;;;;;7.90;5.40;;;1.00;1.00;;;;;;4987879;28;20449;-76
2023/01/29 05:35:45;;;;;;;9.60;5.77;;;1.10;1.00;;;;;;4989649;28;20454;-76
2023/01/29 05:38:12;;;;;;;7.10;5.50;;;0.90;1.00;;;;;;4989171;28;20464;-76
2023/01/29 05:40:37;;;;;;;7.60;5.40;;;1.00;1.00;;;;;;4982365;28;20988;-77
2023/01/29 05:43:04;;;;;;;8.57;5.40;;;1.40;1.00;;;;;;4988272;28;20446;-76
2023/01/29 05:45:31;;;;;;;8.23;5.60;;;1.00;1.00;;;;;;4989313;28;20214;-76
2023/01/29 05:47:58;;;;;;;10.70;6.10;;;0.80;1.00;;;;;;4988792;28;20458;-77
2023/01/29 05:50:25;;;;;;;7.90;5.50;;;0.80;1.00;;;;;;4990528;28;20461;-77
2023/01/29 05:52:58;;;;;;;9.80;6.20;;;0.80;1.00;;;;;;4989562;28;20442;-77
2023/01/29 05:55:24;;;;;;;7.40;5.30;;;0.80;1.00;;;;;;4988716;28;20874;-76
2023/01/29 05:57:49;;;;;;;9.20;5.60;;;0.80;1.00;;;;;;4988802;28;20501;-76
2023/01/29 06:00:15;;;;;;;8.30;6.00;;;0.90;1.00;;;;;;4987957;28;20199;-77
2023/01/29 06:02:41;;;;;;;7.77;5.20;;;0.80;1.00;;;;;;4990318;28;20673;-77
2023/01/29 06:05:07;;;;;;;8.73;6.07;;;1.20;1.00;;;;;;4988277;28;20549;-76
2023/01/29 06:07:32;;;;;;;6.80;5.33;;;0.90;1.00;;;;;;4986057;28;20195;-76
2023/01/29 06:09:58;;;;;;;7.10;5.17;;;0.80;1.00;;;;;;4985979;28;20488;-76
2023/01/29 06:12:25;;;;;;;7.43;5.60;;;1.20;1.00;;;;;;4986947;28;20605;-76
2023/01/29 06:14:50;;;;;;;8.87;5.27;;;1.00;1.00;;;;;;4988214;28;20286;-76
2023/01/29 06:17:15;;;;;;;10.50;5.60;;;1.00;1.00;;;;;;4988603;28;20541;-77
2023/01/29 06:19:41;;;;;;;7.57;5.40;;;1.40;1.00;;;;;;4988586;28;20201;-77
2023/01/29 06:22:07;;;;;;;8.27;5.70;;;1.30;1.00;;;;;;4990177;28;20206;-76
2023/01/29 06:24:32;;;;;;;7.13;5.30;;;0.80;1.00;;;;;;4988897;28;20183;-76
2023/01/29 06:26:58;;;;;;;7.10;5.53;;;0.80;1.00;;;;;;4986327;28;20257;-77
2023/01/29 06:29:23;;;;;;;8.40;5.63;;;0.90;1.00;;;;;;4988076;28;20187;-77
2023/01/29 06:31:49;;;;;;;7.83;5.77;;;0.90;1.00;;;;;;4987974;28;20197;-75
2023/01/29 06:34:14;;;;;;;8.37;5.67;;;0.20;1.00;;;;;;4988725;28;20191;-77
2023/01/29 06:36:40;;;;;;;12.23;6.43;;;0.90;1.00;;;;;;4987291;28;20187;-76
2023/01/29 06:39:06;;;;;;;8.20;6.40;;;0.90;1.00;;;;;;4989491;28;20599;-76
2023/01/29 06:41:31;;;;;;;9.80;6.83;;;1.00;1.00;;;;;;4988381;28;20504;-76
2023/01/29 06:43:57;;;;;;;12.30;7.77;;;1.00;1.00;;;;;;4987862;28;20180;-77
2023/01/29 06:46:22;;;;;;;9.93;6.23;;;1.40;1.00;;;;;;4986221;28;20593;-76
2023/01/29 06:48:48;;;;;;;7.70;5.60;;;1.10;1.00;;;;;;4989661;28;20202;-77
2023/01/29 06:51:13;;;;;;;12.43;6.43;;;1.20;1.00;;;;;;4993787;28;20195;-77
2023/01/29 06:53:39;;;;;;;11.97;7.60;;;1.60;1.00;;;;;;4987066;28;20195;-77
2023/01/29 06:56:05;;;;;;;10.30;6.30;;;1.20;1.00;;;;;;4989702;28;20650;-76
2023/01/29 06:58:31;;;;;;;10.37;6.83;;;1.20;1.00;;;;;;4987755;28;20585;-76
2023/01/29 07:01:08;;;;;;;12.70;6.27;;;1.10;1.00;;;;;;4988760;28;20531;-77
2023/01/29 07:03:34;;;;;;;9.90;6.20;;;1.50;1.00;;;;;;4985238;28;20669;-76
2023/01/29 07:06:00;;;;;;;9.73;6.17;;;1.10;1.00;;;;;;4988276;28;20448;-76
2023/01/29 07:08:26;;;;;;;8.13;6.10;;;1.60;1.00;;;;;;4985892;28;20537;-76
2023/01/29 07:10:52;;;;;;;9.40;6.07;;;1.00;1.00;;;;;;4989159;28;20179;-76
2023/01/29 07:13:17;;;;;;;12.93;6.30;;;0.60;1.00;;;;;;4991076;28;20567;-76
2023/01/29 07:15:43;;;;;;;8.90;5.60;;;0.90;1.00;;;;;;4990217;28;20206;-77
2023/01/29 07:18:12;;;;;;;8.40;5.80;;;1.00;1.00;;;;;;4991136;28;20578;-76
2023/01/29 07:20:39;;;;;;;9.67;6.73;;;1.50;1.00;;;;;;4993116;28;20207;-76
2023/01/29 07:23:05;;;;;;;11.10;6.90;;;1.00;1.00;;;;;;4990597;28;20438;-77
2023/01/29 07:25:33;;;;;;;11.43;6.90;;;0.90;1.00;;;;;;4991832;28;20953;-76
2023/01/29 07:28:02;;;;;;;12.70;7.43;;;0.90;1.00;;;;;;4989814;28;20537;-77
2023/01/29 07:30:28;;;;;;;10.90;6.93;;;1.00;1.00;;;;;;4991863;28;20441;-77
2023/01/29 07:32:53;;;;;;;11.80;7.20;;;1.00;1.00;;;;;;4991324;28;20438;-77
2023/01/29 07:35:19;;;;;;;10.60;7.60;;;1.40;1.00;;;;;;4991295;28;20187;-76
2023/01/29 07:37:48;;;;;;;10.90;6.90;;;1.00;1.00;;;;;;4989511;28;20214;-77
2023/01/29 07:40:14;;;;;;;13.87;8.37;;;1.70;1.00;;;;;;4995461;28;20187;-77
2023/01/29 07:42:41;;;;;;;10.97;8.63;;;1.20;1.00;;;;;;4991918;28;20460;-77
2023/01/29 07:45:07;;;;;;;9.50;6.77;;;1.00;1.00;;;;;;4992399;28;20175;-77
2023/01/29 07:47:33;;;;;;;9.70;6.80;;;0.90;1.00;;;;;;4991221;28;20999;-77
2023/01/29 07:49:59;;;;;;;17.90;9.87;;;0.90;1.00;;;;;;4993305;28;20426;-77
2023/01/29 07:52:24;;;;;;;22.97;12.53;;;1.00;1.00;;;;;;4991383;28;20296;-76
2023/01/29 07:54:50;;;;;;;17.77;9.40;;;1.30;1.00;;;;;;4990526;28;20448;-77
2023/01/29 07:57:15;;;;;;;19.83;9.87;;;0.80;1.00;;;;;;4991879;28;20210;-77
2023/01/29 07:59:41;;;;;;;15.23;8.43;;;1.40;1.00;;;;;;4990723;28;20191;-76
2023/01/29 08:02:08;;;;;;;11.67;7.50;;;1.10;1.00;;;;;;4991315;28;20214;-77
2023/01/29 08:04:34;;;;;;;10.07;6.03;;;1.50;1.00;;;;;;4989475;28;20450;-77
2023/01/29 08:06:59;;;;;;;8.83;6.17;;;1.10;1.00;;;;;;4991478;28;20465;-76
2023/01/29 08:09:25;;;;;;;10.33;6.80;;;1.10;1.00;;;;;;4987093;28;20263;-75
2023/01/29 08:11:50;;;;;;;16.00;7.13;;;1.00;1.00;;;;;;4991511;28;20183;-77
2023/01/29 08:14:16;;;;;;;12.00;6.80;;;1.10;1.00;;;;;;4991890;28;20202;-78
2023/01/29 08:16:41;;;;;;;16.07;9.13;;;1.10;1.00;;;;;;4991056;28;20190;-77
2023/01/29 08:19:07;;;;;;;14.80;9.93;;;1.60;1.00;;;;;;4988108;28;20187;-77
2023/01/29 08:21:32;;;;;;;18.17;11.00;;;1.10;1.00;;;;;;4992242;28;20786;-77
2023/01/29 08:23:58;;;;;;;14.10;9.80;;;1.30;1.00;;;;;;4990841;28;20175;-77
2023/01/29 08:26:25;;;;;;;11.00;7.50;;;1.40;1.00;;;;;;4992951;28;20557;-78
2023/01/29 08:28:50;;;;;;;12.77;8.77;;;1.60;1.00;;;;;;4982120;28;20262;-77
2023/01/29 08:31:18;;;;;;;11.50;8.53;;;1.70;1.00;;;;;;4989023;28;20549;-77
2023/01/29 08:33:43;;;;;;;18.73;11.67;;;2.20;1.00;;;;;;4990202;28;20187;-76
2023/01/29 08:36:09;;;;;;;14.07;8.17;;;1.90;1.00;;;;;;4991004;28;20522;-77
2023/01/29 08:38:35;;;;;;;13.10;8.03;;;2.00;1.00;;;;;;4991781;28;20211;-76
2023/01/29 08:41:00;;;;;;;21.73;12.10;;;2.50;1.00;;;;;;4991000;28;20203;-77
2023/01/29 08:43:26;;;;;;;12.23;7.50;;;2.80;1.00;;;;;;4987383;28;20191;-75
2023/01/29 08:45:51;;;;;;;11.90;6.73;;;2.60;1.00;;;;;;4988799;28;20657;-77
2023/01/29 08:48:17;;;;;;;11.13;7.00;;;2.70;1.00;;;;;;4989615;28;20198;-76
2023/01/29 08:50:42;;;;;;;9.93;6.77;;;2.70;1.00;;;;;;4991871;28;20684;-77
2023/01/29 08:53:08;;;;;;;13.03;8.17;;;2.70;1.00;;;;;;4992215;28;20251;-78
2023/01/29 08:55:36;;;;;;;10.17;7.90;;;2.80;1.00;;;;;;4991815;28;20218;-76
2023/01/29 08:58:04;;;;;;;17.33;9.97;;;3.40;1.00;;;;;;4992320;28;20442;-78
2023/01/29 09:00:30;;;;;;;17.80;10.13;;;3.60;1.00;;;;;;4991393;28;20820;-77
2023/01/29 09:02:56;;;;;;;15.57;10.23;;;3.50;1.00;;;;;;4998781;28;20492;-77
2023/01/29 09:05:21;;;;;;;12.30;9.07;;;3.80;1.00;;;;;;4991939;28;20501;-77
2023/01/29 09:07:47;;;;;;;12.30;8.73;;;3.90;1.00;;;;;;4990317;28;20203;-77
2023/01/29 09:10:12;;;;;;;11.87;8.20;;;3.80;1.00;;;;;;4987376;28;20183;-77
2023/01/29 09:12:38;;;;;;;12.03;8.20;;;4.00;1.00;;;;;;4991721;28;20206;-77
2023/01/29 09:15:04;;;;;;;7.43;6.13;;;4.30;1.00;;;;;;4990673;28;20712;-77
2023/01/29 09:17:29;;;;;;;7.10;5.87;;;4.30;1.00;;;;;;4991277;28;20270;-76
2023/01/29 09:19:54;;;;;;;12.57;8.53;;;4.80;1.00;;;;;;4991985;28;20179;-77
2023/01/29 09:22:20;;;;;;;10.07;6.57;;;4.40;1.00;;;;;;4991085;28;20640;-77
2023/01/29 09:24:45;;;;;;;6.80;4.50;;;4.60;1.00;;;;;;4991187;28;20705;-77
2023/01/29 09:27:11;;;;;;;8.37;5.17;;;5.30;1.00;;;;;;4991071;28;20230;-77
2023/01/29 09:29:36;;;;;;;7.53;5.10;;;6.60;1.00;;;;;;4991599;28;20190;-77
2023/01/29 09:32:05;;;;;;;9.20;5.63;;;7.60;1.00;;;;;;4991265;28;20187;-77
2023/01/29 09:34:31;;;;;;;5.90;5.27;;;8.30;1.00;;;;;;4987202;28;20281;-77
2023/01/29 09:36:57;;;;;;;5.83;5.13;;;8.60;1.00;;;;;;4989956;28;20549;-77
2023/01/29 09:39:22;;;;;;;5.90;4.60;;;8.50;1.00;;;;;;4991307;28;20217;-77
2023/01/29 09:42:25;;;;;;;7.10;5.07;;;8.30;1.00;;;;;;4991237;28;20211;-77
2023/01/29 09:45:18;;;;;;;9.90;6.20;;;8.70;1.00;;;;;;4994290;28;20186;-77
2023/01/29 09:47:44;;;;;;;6.90;5.70;;;8.80;1.00;;;;;;4992416;28;20441;-77
2023/01/29 09:50:18;;;;;;;7.03;5.87;;;8.50;1.00;;;;;;4990878;28;20422;-78
2023/01/29 09:52:49;;;;;;;6.63;5.30;;;8.40;1.00;;;;;;4989484;28;20183;-77
2023/01/29 09:55:22;;;;;;;6.30;5.13;;;8.20;1.00;;;;;;4990819;28;20513;-77
2023/01/29 09:57:55;;;;;;;5.00;4.50;;;7.90;1.00;;;;;;4989014;28;20461;-77
2023/01/29 10:00:43;;;;;;;16.13;11.30;;;7.80;1.00;;;;;;4990432;28;20825;-77
2023/01/29 10:03:27;;;;;;;6.53;4.70;;;7.70;1.00;;;;;;4989588;28;20422;-77
2023/01/29 10:06:06;;;;;;;5.80;5.17;;;7.70;1.00;;;;;;4988971;28;20441;-77
2023/01/29 10:08:54;;;;;;;6.53;5.60;;;7.50;1.00;;;;;;4989854;28;21049;-75
2023/01/29 10:11:36;;;;;;;8.23;6.40;;;7.40;1.00;;;;;;4972612;28;20441;-77
2023/01/29 10:14:41;;;;;;;11.90;6.07;;;7.40;1.00;;;;;;4985655;28;20945;-77
2023/01/29 10:17:25;;;;;;;7.77;5.73;;;7.10;1.00;;;;;;4987546;28;20457;-78
2023/01/29 10:20:09;;;;;;;7.00;6.00;;;6.50;1.00;;;;;;4988167;28;20429;-83
2023/01/29 10:22:59;;;;;;;11.67;8.30;;;6.00;1.00;;;;;;4986847;28;20461;-76
2023/01/29 10:25:24;;;;;;;12.53;9.50;;;5.80;1.00;;;;;;4977429;28;20500;-78
2023/01/29 10:27:53;;;;;;;10.60;7.00;;;5.80;1.00;;;;;;4982228;28;20466;-77
2023/01/29 10:30:33;;;;;;;11.70;8.47;;;5.90;1.00;;;;;;4987412;28;20202;-77
2023/01/29 10:33:02;;;;;;;14.33;10.53;;;5.90;1.00;;;;;;4986355;28;20453;-77
2023/01/29 10:35:37;;;;;;;10.60;7.53;;;5.90;1.00;;;;;;4989537;28;20454;-77
2023/01/29 10:38:32;;;;;;;11.43;8.30;;;5.90;1.00;;;;;;4984629;28;20508;-77
2023/01/29 10:41:00;;;;;;;12.60;8.70;;;6.00;1.00;;;;;;4986721;28;20556;-77
2023/01/29 10:43:53;;;;;;;16.77;9.10;;;6.00;1.00;;;;;;4993423;28;20434;-76
2023/01/29 10:46:39;;;;;;;10.23;8.03;;;6.00;1.00;;;;;;4991556;28;20480;-77
2023/01/29 10:49:39;;;;;;;10.03;8.00;;;6.10;1.00;;;;;;4992668;28;20446;-76
2023/01/29 10:52:31;;;;;;;10.53;7.70;;;6.30;1.00;;;;;;4996036;28;20484;-76
2023/01/29 10:55:18;;;;;;;10.80;7.70;;;6.70;1.00;;;;;;4993415;28;20948;-77
2023/01/29 10:58:02;;;;;;;12.27;8.97;;;7.00;1.00;;;;;;4999665;28;20469;-76
2023/01/29 11:00:35;;;;;;;11.97;8.30;;;7.40;1.00;;;;;;4992100;28;20438;-76
2023/01/29 11:03:11;;;;;;;13.27;8.80;;;7.80;1.00;;;;;;4992172;28;20434;-76
2023/01/29 11:05:53;;;;;;;12.23;8.90;;;7.50;1.00;;;;;;4991448;28;20440;-77
2023/01/29 11:08:22;;;;;;;17.40;9.50;;;7.30;1.00;;;;;;4996495;28;20875;-77
2023/01/29 11:10:54;;;;;;;16.30;10.70;;;7.50;1.00;;;;;;4990963;28;20517;-77
2023/01/29 11:13:23;;;;;;;14.17;8.90;;;7.60;1.00;;;;;;4989520;28;20533;-77
2023/01/29 11:15:51;;;;;;;16.23;8.20;;;8.00;1.00;;;;;;4993039;28;20469;-76
2023/01/29 11:18:16;;;;;;;13.27;9.20;;;8.70;1.00;;;;;;4994139;28;20982;-77
2023/01/29 11:20:44;;;;;;;16.27;9.70;;;9.50;1.00;;;;;;4993836;28;20481;-76
2023/01/29 11:23:31;;;;;;;13.57;9.87;;;10.00;1.00;;;;;;4995137;28;20190;-76
2023/01/29 11:25:58;;;;;;;14.90;9.27;;;10.50;1.00;;;;;;4992329;28;20434;-75
2023/01/29 11:28:48;;;;;;;12.60;9.27;;;11.10;1.00;;;;;;4992527;28;20470;-77
2023/01/29 11:31:25;;;;;;;12.00;8.70;;;12.00;1.00;;;;;;4993482;28;20434;-76
2023/01/29 11:34:04;;;;;;;10.80;8.33;;;12.50;1.00;;;;;;4994316;28;20432;-76
2023/01/29 11:36:36;;;;;;;11.77;9.33;;;12.30;1.00;;;;;;4994171;28;20978;-78
2023/01/29 11:39:10;;;;;;;11.53;8.90;;;13.00;1.00;;;;;;4995286;28;20434;-77
2023/01/29 11:41:46;;;;;;;20.27;9.93;;;14.60;1.00;;;;;;5001847;28;20470;-73
2023/01/29 11:44:38;;;;;;;11.73;9.17;;;15.00;1.00;;;;;;4993757;28;20807;-74
2023/01/29 11:47:20;;;;;;;12.40;8.30;;;13.60;1.00;;;;;;4994368;28;20466;-74
2023/01/29 11:49:49;;;;;;;10.87;9.00;;;12.90;1.00;;;;;;4993397;28;20528;-79
2023/01/29 11:52:17;;;;;;;10.70;8.17;;;12.50;1.00;;;;;;4994499;28;20452;-73
2023/01/29 11:54:58;;;;;;;11.67;8.67;;;12.80;1.00;;;;;;5002109;28;20536;-73
2023/01/29 11:57:32;;;;;;;10.10;8.37;;;14.60;1.00;;;;;;4991805;28;20499;-74
2023/01/29 12:00:06;;;;;;;9.63;8.10;;;15.90;1.00;;;;;;4988813;28;20445;-74
2023/01/29 12:02:50;;;;;;;14.53;9.30;;;15.90;1.00;;;;;;4990055;28;20472;-74
2023/01/29 12:05:21;;;;;;;16.87;12.70;;;16.30;1.00;;;;;;4985705;28;20448;-74
2023/01/29 12:07:54;;;;;;;15.93;12.80;;;17.00;1.00;;;;;;4990687;28;20445;-74
2023/01/29 12:10:34;;;;;;;12.70;9.47;;;16.60;1.00;;;;;;4989006;28;20430;-74
2023/01/29 12:13:03;;;;;;;13.10;11.10;;;16.30;1.00;;;;;;4985670;28;20449;-73
2023/01/29 12:15:29;;;;;;;13.53;10.50;;;16.60;1.00;;;;;;4988488;28;21206;-75
2023/01/29 12:18:20;;;;;;;14.30;10.80;;;17.30;1.00;;;;;;4989118;28;20549;-74
2023/01/29 12:20:51;;;;;;;13.73;10.93;;;16.70;1.00;;;;;;4991507;28;20222;-75
2023/01/29 12:23:31;;;;;;;13.20;10.60;;;16.50;1.00;;;;;;4986773;28;21096;-77
2023/01/29 12:26:16;;;;;;;16.50;10.30;;;16.60;1.00;;;;;;4990075;28;20434;-77
2023/01/29 12:29:16;;;;;;;14.37;11.10;;;17.20;1.00;;;;;;4989741;28;20533;-76
2023/01/29 12:32:01;;;;;;;16.23;11.33;;;16.90;1.00;;;;;;4956664;28;20549;-78
2023/01/29 12:34:43;;;;;;;15.77;11.23;;;16.80;1.00;;;;;;4975310;28;20438;-78
2023/01/29 12:37:18;;;;;;;12.67;10.53;;;16.80;1.00;;;;;;4987457;28;20509;-77
2023/01/29 12:39:43;;;;;;;16.63;11.13;;;16.90;1.00;;;;;;4988185;28;20832;-78
2023/01/29 12:42:14;;;;;;;12.47;9.83;;;16.70;1.00;;;;;;4992067;28;20473;-78
2023/01/29 12:44:59;;;;;;;14.50;9.73;;;16.40;1.00;;;;;;4987711;28;20284;-76
2023/01/29 12:47:28;;;;;;;16.07;12.23;;;16.70;1.00;;;;;;4984284;28;20472;-78
2023/01/29 12:50:07;;;;;;;14.30;11.17;;;15.80;1.00;;;;;;4983973;28;20431;-79
2023/01/29 12:52:44;;;;;;;12.40;9.90;;;14.50;1.00;;;;;;4990722;28;20454;-79
2023/01/29 12:55:23;;;;;;;13.30;10.50;;;14.50;1.00;;;;;;4981525;28;20458;-79
2023/01/29 12:57:57;;;;;;;14.37;10.50;;;14.80;1.00;;;;;;4988649;28;20469;-78
2023/01/29 13:00:32;;;;;;;13.43;10.53;;;14.50;1.00;;;;;;4992455;28;20434;-79
2023/01/29 13:03:06;;;;;;;14.57;9.57;;;13.90;1.00;;;;;;4990598;28;20978;-79
2023/01/29 13:05:45;;;;;;;12.20;9.70;;;13.00;1.00;;;;;;4990231;28;20501;-79
2023/01/29 13:08:35;;;;;;;16.90;11.83;;;12.30;1.00;;;;;;4989541;28;20524;-79
2023/01/29 13:11:07;;;;;;;13.13;8.90;;;12.40;1.00;;;;;;4990390;28;20438;-78
2023/01/29 13:13:51;;;;;;;19.93;11.57;;;12.90;1.00;;;;;;4991981;28;20517;-78
2023/01/29 13:16:22;;;;;;;14.90;10.53;;;14.40;1.00;;;;;;4986665;28;20438;-79
2023/01/29 13:18:58;;;;;;;14.57;9.70;;;13.40;1.00;;;;;;4991435;28;20468;-78
2023/01/29 13:21:32;;;;;;;10.60;8.33;;;12.40;1.00;;;;;;4990633;28;20604;-79
2023/01/29 13:24:26;;;;;;;10.43;8.13;;;10.60;1.00;;;;;;4989426;28;20426;-78
2023/01/29 13:26:52;;;;;;;12.20;8.03;;;9.10;1.00;;;;;;4987127;28;20790;-78
2023/01/29 13:29:27;;;;;;;12.00;8.57;;;8.60;1.00;;;;;;4991799;28;20441;-79
2023/01/29 13:31:55;;;;;;;13.17;8.87;;;8.10;1.00;;;;;;4990180;28;20197;-78
2023/01/29 13:34:27;;;;;;;11.17;8.10;;;7.80;1.00;;;;;;4990436;28;20967;-78
2023/01/29 13:37:11;;;;;;;14.63;9.10;;;7.40;1.00;;;;;;4989231;28;20532;-79
2023/01/29 13:39:47;;;;;;;13.87;10.00;;;7.20;1.00;;;;;;4991056;28;20441;-79
2023/01/29 13:42:19;;;;;;;14.40;9.30;;;7.00;1.00;;;;;;4983911;28;20501;-78
2023/01/29 13:44:51;;;;;;;14.43;9.87;;;6.80;1.00;;;;;;4989822;28;20435;-78
2023/01/29 13:47:29;;;;;;;15.10;10.07;;;6.80;1.00;;;;;;4990366;28;20957;-79
2023/01/29 13:50:01;;;;;;;15.10;9.87;;;6.90;1.00;;;;;;4990540;28;20469;-76
2023/01/29 13:52:54;;;;;;;13.20;8.83;;;6.90;1.00;;;;;;4991235;28;20449;-78